sensor_id;sensor_type;location;lat;lon;timestamp;P1;durP1;ratioP1;P2;durP2;ratioP2
40653;SDS011;26344;45.532;9.232;2023-03-01T00:02:07;39.03;;;27.00;;
40653;SDS011;26344;45.532;9.232;2023-03-01T00:04:33;40.92;;;25.35;;
40653;SDS011;26344;45.532;9.232;2023-03-01T00:07:00;39.08;;;25.10;;
40653;SDS011;26344;45.532;9.232;2023-03-01T00:09:26;41.47;;;25.55;;
40653;SDS011;26344;45.532;9.232;2023-03-01T00:11:52;41.35;;;25.58;;
40653;SDS011;26344;45.532;9.232;2023-03-01T00:14:18;39.60;;;24.80;;
40653;SDS011;26344;45.532;9.232;2023-03-01T00:16:45;41.63;;;26.50;;
40653;SDS011;26344;45.532;9.232;2023-03-01T00:19:15;41.15;;;27.88;;
40653;SDS011;26344;45.532;9.232;2023-03-01T00:21:41;36.40;;;26.00;;
40653;SDS011;26344;45.532;9.232;2023-03-01T00:24:08;41.85;;;27.70;;
40653;SDS011;26344;45.532;9.232;2023-03-01T00:26:34;44.17;;;27.63;;
40653;SDS011;26344;45.532;9.232;2023-03-01T00:29:00;42.38;;;28.13;;
40653;SDS011;26344;45.532;9.232;2023-03-01T00:31:27;42.83;;;27.85;;
40653;SDS011;26344;45.532;9.232;2023-03-01T00:33:54;39.97;;;26.38;;
40653;SDS011;26344;45.532;9.232;2023-03-01T00:38:50;41.35;;;25.83;;
40653;SDS011;26344;45.532;9.232;2023-03-01T00:41:17;40.42;;;24.58;;
40653;SDS011;26344;45.532;9.232;2023-03-01T00:43:43;38.05;;;24.83;;
40653;SDS011;26344;45.532;9.232;2023-03-01T00:46:10;38.55;;;25.73;;
40653;SDS011;26344;45.532;9.232;2023-03-01T00:48:36;37.85;;;24.88;;
40653;SDS011;26344;45.532;9.232;2023-03-01T00:51:10;34.08;;;24.05;;
40653;SDS011;26344;45.532;9.232;2023-03-01T00:53:36;36.83;;;24.92;;
40653;SDS011;26344;45.532;9.232;2023-03-01T00:56:03;36.92;;;24.67;;
40653;SDS011;26344;45.532;9.232;2023-03-01T00:58:30;34.45;;;23.83;;
40653;SDS011;26344;45.532;9.232;2023-03-01T01:00:56;34.75;;;24.27;;
40653;SDS011;26344;45.532;9.232;2023-03-01T01:03:22;34.90;;;23.70;;
40653;SDS011;26344;45.532;9.232;2023-03-01T01:05:50;39.85;;;24.25;;
40653;SDS011;26344;45.532;9.232;2023-03-01T01:08:18;38.42;;;25.85;;
40653;SDS011;26344;45.532;9.232;2023-03-01T01:10:44;40.65;;;24.77;;
40653;SDS011;26344;45.532;9.232;2023-03-01T01:13:11;37.70;;;24.15;;
40653;SDS011;26344;45.532;9.232;2023-03-01T01:15:37;40.30;;;25.80;;
40653;SDS011;26344;45.532;9.232;2023-03-01T01:18:03;37.65;;;24.92;;
40653;SDS011;26344;45.532;9.232;2023-03-01T01:20:29;37.55;;;24.08;;
40653;SDS011;26344;45.532;9.232;2023-03-01T01:22:55;37.75;;;24.13;;
40653;SDS011;26344;45.532;9.232;2023-03-01T01:25:21;42.20;;;23.08;;
40653;SDS011;26344;45.532;9.232;2023-03-01T01:27:49;35.22;;;24.48;;
40653;SDS011;26344;45.532;9.232;2023-03-01T01:30:15;33.15;;;22.98;;
40653;SDS011;26344;45.532;9.232;2023-03-01T01:32:41;35.15;;;23.55;;
40653;SDS011;26344;45.532;9.232;2023-03-01T01:35:07;33.42;;;22.58;;
40653;SDS011;26344;45.532;9.232;2023-03-01T01:37:33;35.25;;;24.25;;
40653;SDS011;26344;45.532;9.232;2023-03-01T01:40:00;35.40;;;23.13;;
40653;SDS011;26344;45.532;9.232;2023-03-01T01:42:29;37.25;;;22.70;;
40653;SDS011;26344;45.532;9.232;2023-03-01T01:47:39;33.05;;;22.25;;
40653;SDS011;26344;45.532;9.232;2023-03-01T01:50:08;35.58;;;22.92;;
40653;SDS011;26344;45.532;9.232;2023-03-01T01:52:40;32.88;;;22.58;;
40653;SDS011;26344;45.532;9.232;2023-03-01T01:55:10;34.47;;;22.52;;
40653;SDS011;26344;45.532;9.232;2023-03-01T01:57:39;36.22;;;22.88;;
40653;SDS011;26344;45.532;9.232;2023-03-01T02:00:07;36.53;;;23.23;;
40653;SDS011;26344;45.532;9.232;2023-03-01T02:02:34;34.97;;;21.95;;
40653;SDS011;26344;45.532;9.232;2023-03-01T02:05:06;30.88;;;21.98;;
40653;SDS011;26344;45.532;9.232;2023-03-01T02:07:35;34.63;;;22.95;;
40653;SDS011;26344;45.532;9.232;2023-03-01T02:10:04;34.53;;;22.33;;
40653;SDS011;26344;45.532;9.232;2023-03-01T02:12:30;34.75;;;23.50;;
40653;SDS011;26344;45.532;9.232;2023-03-01T02:14:56;33.65;;;21.88;;
40653;SDS011;26344;45.532;9.232;2023-03-01T02:17:22;32.42;;;22.25;;
40653;SDS011;26344;45.532;9.232;2023-03-01T02:27:09;30.52;;;21.02;;
40653;SDS011;26344;45.532;9.232;2023-03-01T02:29:36;32.47;;;22.05;;
40653;SDS011;26344;45.532;9.232;2023-03-01T02:32:02;36.08;;;21.30;;
40653;SDS011;26344;45.532;9.232;2023-03-01T02:34:29;31.70;;;21.23;;
40653;SDS011;26344;45.532;9.232;2023-03-01T02:36:58;32.30;;;21.02;;
40653;SDS011;26344;45.532;9.232;2023-03-01T02:39:26;30.20;;;21.58;;
40653;SDS011;26344;45.532;9.232;2023-03-01T02:41:54;31.75;;;20.38;;
40653;SDS011;26344;45.532;9.232;2023-03-01T02:44:21;34.90;;;21.70;;
40653;SDS011;26344;45.532;9.232;2023-03-01T02:46:49;34.20;;;21.15;;
40653;SDS011;26344;45.532;9.232;2023-03-01T02:49:17;33.45;;;21.52;;
40653;SDS011;26344;45.532;9.232;2023-03-01T02:54:28;30.85;;;20.90;;
40653;SDS011;26344;45.532;9.232;2023-03-01T02:56:54;36.72;;;21.40;;
40653;SDS011;26344;45.532;9.232;2023-03-01T02:59:21;36.75;;;20.33;;
40653;SDS011;26344;45.532;9.232;2023-03-01T03:01:51;32.72;;;19.65;;
40653;SDS011;26344;45.532;9.232;2023-03-01T03:04:18;35.17;;;21.60;;
40653;SDS011;26344;45.532;9.232;2023-03-01T03:06:46;32.75;;;21.83;;
40653;SDS011;26344;45.532;9.232;2023-03-01T03:09:12;32.80;;;22.13;;
40653;SDS011;26344;45.532;9.232;2023-03-01T03:11:39;32.47;;;21.38;;
40653;SDS011;26344;45.532;9.232;2023-03-01T03:14:06;33.40;;;22.38;;
40653;SDS011;26344;45.532;9.232;2023-03-01T03:16:37;31.00;;;20.45;;
40653;SDS011;26344;45.532;9.232;2023-03-01T03:19:03;32.25;;;20.02;;
40653;SDS011;26344;45.532;9.232;2023-03-01T03:21:30;31.70;;;21.10;;
40653;SDS011;26344;45.532;9.232;2023-03-01T03:23:56;35.35;;;20.10;;
40653;SDS011;26344;45.532;9.232;2023-03-01T03:26:22;33.60;;;21.60;;
40653;SDS011;26344;45.532;9.232;2023-03-01T03:28:49;33.20;;;21.10;;
40653;SDS011;26344;45.532;9.232;2023-03-01T03:31:15;30.35;;;20.42;;
40653;SDS011;26344;45.532;9.232;2023-03-01T03:33:41;32.80;;;21.08;;
40653;SDS011;26344;45.532;9.232;2023-03-01T03:36:07;33.13;;;21.30;;
40653;SDS011;26344;45.532;9.232;2023-03-01T03:38:38;39.38;;;22.42;;
40653;SDS011;26344;45.532;9.232;2023-03-01T03:41:07;31.70;;;21.17;;
40653;SDS011;26344;45.532;9.232;2023-03-01T03:43:35;32.92;;;21.05;;
40653;SDS011;26344;45.532;9.232;2023-03-01T03:46:02;33.80;;;21.40;;
40653;SDS011;26344;45.532;9.232;2023-03-01T03:50:57;29.48;;;20.08;;
40653;SDS011;26344;45.532;9.232;2023-03-01T03:53:24;31.58;;;21.15;;
40653;SDS011;26344;45.532;9.232;2023-03-01T03:55:50;32.00;;;20.58;;
40653;SDS011;26344;45.532;9.232;2023-03-01T03:58:17;35.63;;;22.77;;
40653;SDS011;26344;45.532;9.232;2023-03-01T04:00:45;31.98;;;21.85;;
40653;SDS011;26344;45.532;9.232;2023-03-01T04:03:11;37.72;;;21.40;;
40653;SDS011;26344;45.532;9.232;2023-03-01T04:05:38;39.60;;;22.85;;
40653;SDS011;26344;45.532;9.232;2023-03-01T04:08:04;35.92;;;22.38;;
40653;SDS011;26344;45.532;9.232;2023-03-01T04:10:45;36.03;;;23.15;;
40653;SDS011;26344;45.532;9.232;2023-03-01T04:13:13;35.28;;;22.38;;
40653;SDS011;26344;45.532;9.232;2023-03-01T04:15:39;32.53;;;22.45;;
40653;SDS011;26344;45.532;9.232;2023-03-01T04:18:08;35.55;;;23.35;;
40653;SDS011;26344;45.532;9.232;2023-03-01T04:20:35;35.72;;;23.55;;
40653;SDS011;26344;45.532;9.232;2023-03-01T04:23:03;35.30;;;22.38;;
40653;SDS011;26344;45.532;9.232;2023-03-01T04:25:50;34.42;;;22.25;;
40653;SDS011;26344;45.532;9.232;2023-03-01T04:30:55;37.42;;;22.88;;
40653;SDS011;26344;45.532;9.232;2023-03-01T04:33:21;38.75;;;22.38;;
40653;SDS011;26344;45.532;9.232;2023-03-01T04:35:47;40.35;;;23.42;;
40653;SDS011;26344;45.532;9.232;2023-03-01T04:38:19;38.85;;;23.35;;
40653;SDS011;26344;45.532;9.232;2023-03-01T04:40:46;34.13;;;22.20;;
40653;SDS011;26344;45.532;9.232;2023-03-01T04:43:12;42.33;;;22.73;;
40653;SDS011;26344;45.532;9.232;2023-03-01T04:45:42;35.65;;;22.25;;
40653;SDS011;26344;45.532;9.232;2023-03-01T04:48:08;38.97;;;24.08;;
40653;SDS011;26344;45.532;9.232;2023-03-01T04:50:34;37.30;;;23.67;;
40653;SDS011;26344;45.532;9.232;2023-03-01T04:53:07;41.30;;;22.70;;
40653;SDS011;26344;45.532;9.232;2023-03-01T04:55:33;34.30;;;22.35;;
40653;SDS011;26344;45.532;9.232;2023-03-01T04:57:59;35.70;;;23.35;;
40653;SDS011;26344;45.532;9.232;2023-03-01T05:00:25;37.53;;;22.88;;
40653;SDS011;26344;45.532;9.232;2023-03-01T05:02:55;37.60;;;23.30;;
40653;SDS011;26344;45.532;9.232;2023-03-01T05:07:54;37.70;;;22.85;;
40653;SDS011;26344;45.532;9.232;2023-03-01T05:10:20;37.03;;;22.75;;
40653;SDS011;26344;45.532;9.232;2023-03-01T05:12:46;37.75;;;23.45;;
40653;SDS011;26344;45.532;9.232;2023-03-01T05:15:12;35.28;;;23.42;;
40653;SDS011;26344;45.532;9.232;2023-03-01T05:17:39;39.40;;;24.05;;
40653;SDS011;26344;45.532;9.232;2023-03-01T05:20:05;36.45;;;24.42;;
40653;SDS011;26344;45.532;9.232;2023-03-01T05:22:34;37.45;;;23.50;;
40653;SDS011;26344;45.532;9.232;2023-03-01T05:25:01;37.10;;;22.48;;
40653;SDS011;26344;45.532;9.232;2023-03-01T05:27:27;37.65;;;23.77;;
40653;SDS011;26344;45.532;9.232;2023-03-01T05:29:54;40.15;;;22.90;;
40653;SDS011;26344;45.532;9.232;2023-03-01T05:32:20;36.42;;;23.92;;
40653;SDS011;26344;45.532;9.232;2023-03-01T05:34:46;38.97;;;24.52;;
40653;SDS011;26344;45.532;9.232;2023-03-01T05:37:12;41.35;;;25.00;;
40653;SDS011;26344;45.532;9.232;2023-03-01T05:39:39;41.78;;;25.10;;
40653;SDS011;26344;45.532;9.232;2023-03-01T05:42:09;39.47;;;23.17;;
40653;SDS011;26344;45.532;9.232;2023-03-01T05:44:36;40.10;;;24.38;;
40653;SDS011;26344;45.532;9.232;2023-03-01T05:47:02;40.92;;;25.35;;
40653;SDS011;26344;45.532;9.232;2023-03-01T05:49:28;40.67;;;24.23;;
40653;SDS011;26344;45.532;9.232;2023-03-01T05:51:55;35.90;;;22.80;;
40653;SDS011;26344;45.532;9.232;2023-03-01T05:54:21;40.53;;;23.25;;
40653;SDS011;26344;45.532;9.232;2023-03-01T05:56:47;37.28;;;23.77;;
40653;SDS011;26344;45.532;9.232;2023-03-01T05:59:14;45.42;;;24.38;;
40653;SDS011;26344;45.532;9.232;2023-03-01T06:01:41;40.75;;;24.92;;
40653;SDS011;26344;45.532;9.232;2023-03-01T06:04:08;44.55;;;25.63;;
40653;SDS011;26344;45.532;9.232;2023-03-01T06:06:34;42.30;;;25.30;;
40653;SDS011;26344;45.532;9.232;2023-03-01T06:09:02;42.22;;;24.15;;
40653;SDS011;26344;45.532;9.232;2023-03-01T06:11:28;39.72;;;25.67;;
40653;SDS011;26344;45.532;9.232;2023-03-01T06:13:54;41.03;;;25.33;;
40653;SDS011;26344;45.532;9.232;2023-03-01T06:16:20;38.92;;;24.52;;
40653;SDS011;26344;45.532;9.232;2023-03-01T06:18:46;44.22;;;25.75;;
40653;SDS011;26344;45.532;9.232;2023-03-01T06:21:12;40.92;;;24.58;;
40653;SDS011;26344;45.532;9.232;2023-03-01T06:23:39;41.63;;;25.65;;
40653;SDS011;26344;45.532;9.232;2023-03-01T06:26:06;39.47;;;24.05;;
40653;SDS011;26344;45.532;9.232;2023-03-01T06:28:32;38.83;;;25.15;;
40653;SDS011;26344;45.532;9.232;2023-03-01T06:30:58;43.00;;;24.70;;
40653;SDS011;26344;45.532;9.232;2023-03-01T06:33:24;37.60;;;23.60;;
40653;SDS011;26344;45.532;9.232;2023-03-01T06:35:50;38.83;;;24.40;;
40653;SDS011;26344;45.532;9.232;2023-03-01T06:38:16;37.92;;;24.20;;
40653;SDS011;26344;45.532;9.232;2023-03-01T06:40:44;37.38;;;23.65;;
40653;SDS011;26344;45.532;9.232;2023-03-01T06:43:10;45.78;;;25.25;;
40653;SDS011;26344;45.532;9.232;2023-03-01T06:45:36;42.22;;;24.92;;
40653;SDS011;26344;45.532;9.232;2023-03-01T06:48:06;48.75;;;25.13;;
40653;SDS011;26344;45.532;9.232;2023-03-01T06:50:33;37.38;;;24.17;;
40653;SDS011;26344;45.532;9.232;2023-03-01T06:52:59;44.42;;;24.45;;
40653;SDS011;26344;45.532;9.232;2023-03-01T06:55:29;46.65;;;25.25;;
40653;SDS011;26344;45.532;9.232;2023-03-01T06:57:56;44.08;;;24.52;;
40653;SDS011;26344;45.532;9.232;2023-03-01T07:00:22;40.28;;;25.15;;
40653;SDS011;26344;45.532;9.232;2023-03-01T07:02:48;42.78;;;24.30;;
40653;SDS011;26344;45.532;9.232;2023-03-01T07:05:14;41.67;;;24.45;;
40653;SDS011;26344;45.532;9.232;2023-03-01T07:07:40;35.38;;;23.17;;
40653;SDS011;26344;45.532;9.232;2023-03-01T07:10:07;39.13;;;23.40;;
40653;SDS011;26344;45.532;9.232;2023-03-01T07:12:33;37.85;;;23.15;;
40653;SDS011;26344;45.532;9.232;2023-03-01T07:14:59;40.53;;;22.38;;
40653;SDS011;26344;45.532;9.232;2023-03-01T07:17:25;39.10;;;20.25;;
40653;SDS011;26344;45.532;9.232;2023-03-01T07:19:51;32.30;;;20.08;;
40653;SDS011;26344;45.532;9.232;2023-03-01T07:22:17;32.58;;;18.85;;
40653;SDS011;26344;45.532;9.232;2023-03-01T07:24:43;30.27;;;18.17;;
40653;SDS011;26344;45.532;9.232;2023-03-01T07:27:10;22.02;;;13.40;;
40653;SDS011;26344;45.532;9.232;2023-03-01T07:29:36;28.83;;;15.40;;
40653;SDS011;26344;45.532;9.232;2023-03-01T07:32:02;24.83;;;15.45;;
40653;SDS011;26344;45.532;9.232;2023-03-01T07:34:28;23.05;;;15.10;;
40653;SDS011;26344;45.532;9.232;2023-03-01T07:36:54;25.85;;;14.90;;
40653;SDS011;26344;45.532;9.232;2023-03-01T07:39:21;24.20;;;14.00;;
40653;SDS011;26344;45.532;9.232;2023-03-01T07:41:48;24.13;;;14.00;;
40653;SDS011;26344;45.532;9.232;2023-03-01T07:44:14;25.15;;;14.57;;
40653;SDS011;26344;45.532;9.232;2023-03-01T07:46:41;23.23;;;14.38;;
40653;SDS011;26344;45.532;9.232;2023-03-01T07:49:07;25.65;;;13.95;;
40653;SDS011;26344;45.532;9.232;2023-03-01T07:51:34;22.70;;;13.85;;
40653;SDS011;26344;45.532;9.232;2023-03-01T07:54:00;23.27;;;13.25;;
40653;SDS011;26344;45.532;9.232;2023-03-01T07:56:26;22.70;;;13.43;;
40653;SDS011;26344;45.532;9.232;2023-03-01T07:58:52;23.42;;;13.43;;
40653;SDS011;26344;45.532;9.232;2023-03-01T08:01:19;21.10;;;13.23;;
40653;SDS011;26344;45.532;9.232;2023-03-01T08:03:45;23.45;;;13.55;;
40653;SDS011;26344;45.532;9.232;2023-03-01T08:06:12;22.73;;;13.52;;
40653;SDS011;26344;45.532;9.232;2023-03-01T08:08:39;24.70;;;14.40;;
40653;SDS011;26344;45.532;9.232;2023-03-01T08:11:05;22.38;;;14.10;;
40653;SDS011;26344;45.532;9.232;2023-03-01T08:13:32;22.58;;;14.23;;
40653;SDS011;26344;45.532;9.232;2023-03-01T08:16:02;23.77;;;14.85;;
40653;SDS011;26344;45.532;9.232;2023-03-01T08:18:28;24.67;;;15.07;;
40653;SDS011;26344;45.532;9.232;2023-03-01T08:20:54;23.80;;;14.93;;
40653;SDS011;26344;45.532;9.232;2023-03-01T08:23:20;24.25;;;14.80;;
40653;SDS011;26344;45.532;9.232;2023-03-01T08:25:46;25.25;;;16.05;;
40653;SDS011;26344;45.532;9.232;2023-03-01T08:28:12;26.50;;;16.85;;
40653;SDS011;26344;45.532;9.232;2023-03-01T08:30:38;33.10;;;17.30;;
40653;SDS011;26344;45.532;9.232;2023-03-01T08:33:04;32.35;;;18.50;;
40653;SDS011;26344;45.532;9.232;2023-03-01T08:35:30;26.70;;;16.52;;
40653;SDS011;26344;45.532;9.232;2023-03-01T08:37:56;29.55;;;17.17;;
40653;SDS011;26344;45.532;9.232;2023-03-01T08:40:22;27.60;;;16.52;;
40653;SDS011;26344;45.532;9.232;2023-03-01T08:42:48;24.08;;;16.40;;
40653;SDS011;26344;45.532;9.232;2023-03-01T08:45:14;29.63;;;16.73;;
40653;SDS011;26344;45.532;9.232;2023-03-01T08:47:43;25.25;;;15.43;;
40653;SDS011;26344;45.532;9.232;2023-03-01T08:50:10;29.52;;;14.88;;
40653;SDS011;26344;45.532;9.232;2023-03-01T08:52:36;24.67;;;14.50;;
40653;SDS011;26344;45.532;9.232;2023-03-01T08:55:03;21.95;;;13.05;;
40653;SDS011;26344;45.532;9.232;2023-03-01T08:57:29;22.80;;;14.48;;
40653;SDS011;26344;45.532;9.232;2023-03-01T08:59:55;23.40;;;15.25;;
40653;SDS011;26344;45.532;9.232;2023-03-01T09:02:21;22.58;;;14.05;;
40653;SDS011;26344;45.532;9.232;2023-03-01T09:04:47;26.92;;;15.15;;
40653;SDS011;26344;45.532;9.232;2023-03-01T09:07:13;27.00;;;15.60;;
40653;SDS011;26344;45.532;9.232;2023-03-01T09:09:39;25.98;;;16.17;;
40653;SDS011;26344;45.532;9.232;2023-03-01T09:12:05;26.42;;;16.20;;
40653;SDS011;26344;45.532;9.232;2023-03-01T09:14:31;22.40;;;14.18;;
40653;SDS011;26344;45.532;9.232;2023-03-01T09:16:57;28.27;;;15.88;;
40653;SDS011;26344;45.532;9.232;2023-03-01T09:19:27;31.65;;;15.38;;
40653;SDS011;26344;45.532;9.232;2023-03-01T09:21:53;21.88;;;15.25;;
40653;SDS011;26344;45.532;9.232;2023-03-01T09:24:21;27.98;;;15.85;;
40653;SDS011;26344;45.532;9.232;2023-03-01T09:26:48;26.17;;;16.55;;
40653;SDS011;26344;45.532;9.232;2023-03-01T09:29:14;26.98;;;17.73;;
40653;SDS011;26344;45.532;9.232;2023-03-01T09:31:41;28.05;;;18.42;;
40653;SDS011;26344;45.532;9.232;2023-03-01T09:34:08;37.78;;;20.15;;
40653;SDS011;26344;45.532;9.232;2023-03-01T09:36:34;33.90;;;21.48;;
40653;SDS011;26344;45.532;9.232;2023-03-01T09:39:01;35.10;;;21.50;;
40653;SDS011;26344;45.532;9.232;2023-03-01T09:44:05;44.60;;;21.95;;
40653;SDS011;26344;45.532;9.232;2023-03-01T09:46:37;41.00;;;21.40;;
40653;SDS011;26344;45.532;9.232;2023-03-01T09:51:33;40.58;;;20.95;;
40653;SDS011;26344;45.532;9.232;2023-03-01T09:54:03;35.83;;;19.50;;
40653;SDS011;26344;45.532;9.232;2023-03-01T09:59:56;29.35;;;18.25;;
40653;SDS011;26344;45.532;9.232;2023-03-01T10:04:52;34.70;;;18.60;;
40653;SDS011;26344;45.532;9.232;2023-03-01T10:07:22;39.23;;;17.83;;
40653;SDS011;26344;45.532;9.232;2023-03-01T10:09:51;27.35;;;17.90;;
40653;SDS011;26344;45.532;9.232;2023-03-01T10:12:18;28.42;;;16.70;;
40653;SDS011;26344;45.532;9.232;2023-03-01T10:14:51;28.15;;;16.65;;
40653;SDS011;26344;45.532;9.232;2023-03-01T10:17:33;29.92;;;16.50;;
40653;SDS011;26344;45.532;9.232;2023-03-01T10:21:05;30.70;;;17.15;;
40653;SDS011;26344;45.532;9.232;2023-03-01T10:22:57;28.40;;;16.35;;
40653;SDS011;26344;45.532;9.232;2023-03-01T10:27:52;29.70;;;17.88;;
40653;SDS011;26344;45.532;9.232;2023-03-01T10:30:19;33.63;;;17.33;;
40653;SDS011;26344;45.532;9.232;2023-03-01T10:32:46;27.95;;;16.38;;
40653;SDS011;26344;45.532;9.232;2023-03-01T10:37:56;26.20;;;16.55;;
40653;SDS011;26344;45.532;9.232;2023-03-01T10:42:49;33.97;;;14.65;;
40653;SDS011;26344;45.532;9.232;2023-03-01T10:47:41;22.38;;;14.00;;
40653;SDS011;26344;45.532;9.232;2023-03-01T10:50:20;19.58;;;13.55;;
40653;SDS011;26344;45.532;9.232;2023-03-01T10:57:39;24.50;;;13.38;;
40653;SDS011;26344;45.532;9.232;2023-03-01T11:02:48;25.42;;;16.10;;
40653;SDS011;26344;45.532;9.232;2023-03-01T11:05:19;24.33;;;16.00;;
40653;SDS011;26344;45.532;9.232;2023-03-01T11:07:47;25.75;;;15.95;;
40653;SDS011;26344;45.532;9.232;2023-03-01T11:10:16;28.85;;;16.63;;
40653;SDS011;26344;45.532;9.232;2023-03-01T11:12:42;25.63;;;16.63;;
40653;SDS011;26344;45.532;9.232;2023-03-01T11:15:15;27.00;;;16.60;;
40653;SDS011;26344;45.532;9.232;2023-03-01T11:17:45;27.98;;;17.17;;
40653;SDS011;26344;45.532;9.232;2023-03-01T11:23:00;27.85;;;18.48;;
40653;SDS011;26344;45.532;9.232;2023-03-01T11:25:31;29.42;;;18.85;;
40653;SDS011;26344;45.532;9.232;2023-03-01T11:27:58;29.52;;;18.55;;
40653;SDS011;26344;45.532;9.232;2023-03-01T11:35:47;31.13;;;19.08;;
40653;SDS011;26344;45.532;9.232;2023-03-01T11:51:25;33.33;;;20.65;;
40653;SDS011;26344;45.532;9.232;2023-03-01T11:56:42;29.23;;;19.70;;
40653;SDS011;26344;45.532;9.232;2023-03-01T12:07:01;29.02;;;17.92;;
40653;SDS011;26344;45.532;9.232;2023-03-01T12:17:04;28.70;;;18.88;;
40653;SDS011;26344;45.532;9.232;2023-03-01T12:25:01;27.98;;;18.08;;
40653;SDS011;26344;45.532;9.232;2023-03-01T12:32:47;30.15;;;17.55;;
40653;SDS011;26344;45.532;9.232;2023-03-01T12:41:02;30.63;;;18.67;;
40653;SDS011;26344;45.532;9.232;2023-03-01T12:46:05;26.38;;;17.17;;
40653;SDS011;26344;45.532;9.232;2023-03-01T12:51:08;26.17;;;17.25;;
40653;SDS011;26344;45.532;9.232;2023-03-01T12:53:36;23.67;;;17.05;;
40653;SDS011;26344;45.532;9.232;2023-03-01T12:56:09;26.90;;;17.27;;
40653;SDS011;26344;45.532;9.232;2023-03-01T13:09:40;27.85;;;18.17;;
40653;SDS011;26344;45.532;9.232;2023-03-01T13:14:54;28.13;;;18.25;;
40653;SDS011;26344;45.532;9.232;2023-03-01T13:17:39;28.00;;;18.27;;
40653;SDS011;26344;45.532;9.232;2023-03-01T13:20:11;32.10;;;18.52;;
40653;SDS011;26344;45.532;9.232;2023-03-01T13:22:38;26.58;;;18.27;;
40653;SDS011;26344;45.532;9.232;2023-03-01T13:25:11;26.63;;;17.70;;
40653;SDS011;26344;45.532;9.232;2023-03-01T13:27:38;25.48;;;17.52;;
40653;SDS011;26344;45.532;9.232;2023-03-01T13:30:12;28.58;;;18.60;;
40653;SDS011;26344;45.532;9.232;2023-03-01T13:32:50;30.63;;;17.90;;
40653;SDS011;26344;45.532;9.232;2023-03-01T13:37:45;26.87;;;17.90;;
40653;SDS011;26344;45.532;9.232;2023-03-01T13:42:49;30.45;;;18.30;;
40653;SDS011;26344;45.532;9.232;2023-03-01T13:45:18;33.55;;;21.67;;
40653;SDS011;26344;45.532;9.232;2023-03-01T13:47:44;36.87;;;21.67;;
40653;SDS011;26344;45.532;9.232;2023-03-01T13:50:18;38.25;;;22.50;;
40653;SDS011;26344;45.532;9.232;2023-03-01T13:52:50;31.40;;;18.95;;
40653;SDS011;26344;45.532;9.232;2023-03-01T13:55:19;32.25;;;19.90;;
40653;SDS011;26344;45.532;9.232;2023-03-01T13:57:50;31.42;;;19.55;;
40653;SDS011;26344;45.532;9.232;2023-03-01T14:00:30;29.02;;;19.25;;
40653;SDS011;26344;45.532;9.232;2023-03-01T14:03:01;34.63;;;20.02;;
40653;SDS011;26344;45.532;9.232;2023-03-01T14:05:28;27.70;;;18.88;;
40653;SDS011;26344;45.532;9.232;2023-03-01T14:07:54;29.73;;;19.40;;
40653;SDS011;26344;45.532;9.232;2023-03-01T14:10:21;31.92;;;19.50;;
40653;SDS011;26344;45.532;9.232;2023-03-01T14:12:52;28.70;;;19.15;;
40653;SDS011;26344;45.532;9.232;2023-03-01T14:15:27;31.85;;;19.77;;
40653;SDS011;26344;45.532;9.232;2023-03-01T14:20:46;34.88;;;20.65;;
40653;SDS011;26344;45.532;9.232;2023-03-01T14:23:20;32.10;;;20.58;;
40653;SDS011;26344;45.532;9.232;2023-03-01T14:25:57;35.20;;;19.85;;
40653;SDS011;26344;45.532;9.232;2023-03-01T14:28:31;32.75;;;19.90;;
40653;SDS011;26344;45.532;9.232;2023-03-01T14:33:56;36.40;;;19.73;;
40653;SDS011;26344;45.532;9.232;2023-03-01T14:36:26;34.53;;;19.95;;
40653;SDS011;26344;45.532;9.232;2023-03-01T14:39:16;32.45;;;19.77;;
40653;SDS011;26344;45.532;9.232;2023-03-01T14:41:49;33.40;;;19.58;;
40653;SDS011;26344;45.532;9.232;2023-03-01T14:44:21;31.47;;;19.13;;
40653;SDS011;26344;45.532;9.232;2023-03-01T14:46:52;31.15;;;19.65;;
40653;SDS011;26344;45.532;9.232;2023-03-01T14:49:29;33.33;;;19.30;;
40653;SDS011;26344;45.532;9.232;2023-03-01T14:51:59;32.83;;;19.38;;
40653;SDS011;26344;45.532;9.232;2023-03-01T14:54:42;30.25;;;19.15;;
40653;SDS011;26344;45.532;9.232;2023-03-01T14:57:42;34.00;;;19.58;;
40653;SDS011;26344;45.532;9.232;2023-03-01T15:00:27;32.00;;;19.48;;
40653;SDS011;26344;45.532;9.232;2023-03-01T15:03:20;29.13;;;19.80;;
40653;SDS011;26344;45.532;9.232;2023-03-01T15:05:43;31.85;;;19.92;;
40653;SDS011;26344;45.532;9.232;2023-03-01T15:08:16;28.52;;;19.30;;
40653;SDS011;26344;45.532;9.232;2023-03-01T15:10:56;35.95;;;20.83;;
40653;SDS011;26344;45.532;9.232;2023-03-01T15:13:28;30.73;;;20.00;;
40653;SDS011;26344;45.532;9.232;2023-03-01T15:18:49;34.85;;;20.70;;
40653;SDS011;26344;45.532;9.232;2023-03-01T15:21:23;30.70;;;18.83;;
40653;SDS011;26344;45.532;9.232;2023-03-01T15:23:53;31.48;;;20.20;;
40653;SDS011;26344;45.532;9.232;2023-03-01T15:26:26;36.75;;;20.10;;
40653;SDS011;26344;45.532;9.232;2023-03-01T15:28:59;35.45;;;20.05;;
40653;SDS011;26344;45.532;9.232;2023-03-01T15:31:40;31.95;;;19.63;;
40653;SDS011;26344;45.532;9.232;2023-03-01T15:34:28;30.48;;;19.45;;
40653;SDS011;26344;45.532;9.232;2023-03-01T15:36:55;31.80;;;17.70;;
40653;SDS011;26344;45.532;9.232;2023-03-01T15:39:52;31.90;;;19.48;;
40653;SDS011;26344;45.532;9.232;2023-03-01T15:47:47;32.20;;;19.75;;
40653;SDS011;26344;45.532;9.232;2023-03-01T15:50:26;31.30;;;19.65;;
40653;SDS011;26344;45.532;9.232;2023-03-01T15:52:53;33.17;;;19.63;;
40653;SDS011;26344;45.532;9.232;2023-03-01T15:55:20;31.42;;;19.98;;
40653;SDS011;26344;45.532;9.232;2023-03-01T15:57:47;31.88;;;19.65;;
40653;SDS011;26344;45.532;9.232;2023-03-01T16:00:14;29.00;;;19.50;;
40653;SDS011;26344;45.532;9.232;2023-03-01T16:02:41;34.28;;;20.10;;
40653;SDS011;26344;45.532;9.232;2023-03-01T16:05:26;32.83;;;20.15;;
40653;SDS011;26344;45.532;9.232;2023-03-01T16:07:56;30.73;;;20.17;;
40653;SDS011;26344;45.532;9.232;2023-03-01T16:10:23;37.20;;;22.08;;
40653;SDS011;26344;45.532;9.232;2023-03-01T16:12:52;41.35;;;21.95;;
40653;SDS011;26344;45.532;9.232;2023-03-01T16:17:48;35.25;;;21.23;;
40653;SDS011;26344;45.532;9.232;2023-03-01T16:20:18;35.72;;;20.70;;
40653;SDS011;26344;45.532;9.232;2023-03-01T16:22:44;32.45;;;19.85;;
40653;SDS011;26344;45.532;9.232;2023-03-01T16:25:11;34.85;;;19.73;;
40653;SDS011;26344;45.532;9.232;2023-03-01T16:27:37;33.47;;;20.08;;
40653;SDS011;26344;45.532;9.232;2023-03-01T16:30:04;29.60;;;19.98;;
40653;SDS011;26344;45.532;9.232;2023-03-01T16:32:30;31.27;;;19.63;;
40653;SDS011;26344;45.532;9.232;2023-03-01T16:34:56;31.55;;;20.75;;
40653;SDS011;26344;45.532;9.232;2023-03-01T16:37:22;33.55;;;20.27;;
40653;SDS011;26344;45.532;9.232;2023-03-01T16:39:48;32.13;;;20.35;;
40653;SDS011;26344;45.532;9.232;2023-03-01T16:42:17;35.55;;;21.17;;
40653;SDS011;26344;45.532;9.232;2023-03-01T16:44:43;32.28;;;20.45;;
40653;SDS011;26344;45.532;9.232;2023-03-01T16:47:09;31.23;;;19.23;;
40653;SDS011;26344;45.532;9.232;2023-03-01T16:49:35;32.58;;;20.85;;
40653;SDS011;26344;45.532;9.232;2023-03-01T16:52:01;33.92;;;19.88;;
40653;SDS011;26344;45.532;9.232;2023-03-01T16:54:26;33.05;;;20.35;;
40653;SDS011;26344;45.532;9.232;2023-03-01T16:56:53;30.10;;;19.65;;